sensor_id;sensor_type;location;lat;lon;timestamp;temperature;humidity
68011;DHT22;54794;48.348;7.878;2023-02-19T00:01:32;14.60;60.80
68011;DHT22;54794;48.348;7.878;2023-02-19T00:04:03;14.60;60.70
68011;DHT22;54794;48.348;7.878;2023-02-19T00:06:39;14.60;61.30
68011;DHT22;54794;48.348;7.878;2023-02-19T00:09:07;14.60;60.70
68011;DHT22;54794;48.348;7.878;2023-02-19T00:11:36;14.60;60.70
68011;DHT22;54794;48.348;7.878;2023-02-19T00:14:04;14.60;60.80
68011;DHT22;54794;48.348;7.878;2023-02-19T00:16:37;14.60;60.80
68011;DHT22;54794;48.348;7.878;2023-02-19T00:19:09;14.60;60.90
68011;DHT22;54794;48.348;7.878;2023-02-19T00:21:38;14.60;60.90
68011;DHT22;54794;48.348;7.878;2023-02-19T00:24:06;14.50;60.90
68011;DHT22;54794;48.348;7.878;2023-02-19T00:26:37;14.60;61.00
68011;DHT22;54794;48.348;7.878;2023-02-19T00:29:06;14.60;61.00
68011;DHT22;54794;48.348;7.878;2023-02-19T00:31:34;14.50;60.90
68011;DHT22;54794;48.348;7.878;2023-02-19T00:34:03;14.50;61.00
68011;DHT22;54794;48.348;7.878;2023-02-19T00:36:33;14.50;61.00
68011;DHT22;54794;48.348;7.878;2023-02-19T00:39:04;14.50;61.00
68011;DHT22;54794;48.348;7.878;2023-02-19T00:41:32;14.50;61.00
68011;DHT22;54794;48.348;7.878;2023-02-19T00:44:05;14.50;61.00
68011;DHT22;54794;48.348;7.878;2023-02-19T00:46:36;14.50;61.10
68011;DHT22;54794;48.348;7.878;2023-02-19T00:49:07;14.50;61.10
68011;DHT22;54794;48.348;7.878;2023-02-19T00:51:38;14.50;61.10
68011;DHT22;54794;48.348;7.878;2023-02-19T00:54:05;14.50;61.10
68011;DHT22;54794;48.348;7.878;2023-02-19T00:56:32;14.50;61.10
68011;DHT22;54794;48.348;7.878;2023-02-19T00:58:59;14.50;61.10
68011;DHT22;54794;48.348;7.878;2023-02-19T01:01:26;14.50;61.10
68011;DHT22;54794;48.348;7.878;2023-02-19T01:04:00;14.50;61.10
68011;DHT22;54794;48.348;7.878;2023-02-19T01:06:27;14.40;61.10
68011;DHT22;54794;48.348;7.878;2023-02-19T01:08:56;14.40;61.00
68011;DHT22;54794;48.348;7.878;2023-02-19T01:11:24;14.40;61.00
68011;DHT22;54794;48.348;7.878;2023-02-19T01:13:51;14.40;61.00
68011;DHT22;54794;48.348;7.878;2023-02-19T01:16:20;14.40;60.80
68011;DHT22;54794;48.348;7.878;2023-02-19T01:18:50;14.40;60.90
68011;DHT22;54794;48.348;7.878;2023-02-19T01:21:23;14.40;60.90
68011;DHT22;54794;48.348;7.878;2023-02-19T01:23:52;14.30;60.90
68011;DHT22;54794;48.348;7.878;2023-02-19T01:26:23;14.30;60.90
68011;DHT22;54794;48.348;7.878;2023-02-19T01:28:52;14.30;60.90
68011;DHT22;54794;48.348;7.878;2023-02-19T01:31:22;14.30;60.80
68011;DHT22;54794;48.348;7.878;2023-02-19T01:33:52;14.30;60.90
68011;DHT22;54794;48.348;7.878;2023-02-19T01:36:22;14.20;60.80
68011;DHT22;54794;48.348;7.878;2023-02-19T01:38:49;14.20;60.80
68011;DHT22;54794;48.348;7.878;2023-02-19T01:41:19;14.20;60.80
68011;DHT22;54794;48.348;7.878;2023-02-19T01:44:03;14.20;60.80
68011;DHT22;54794;48.348;7.878;2023-02-19T01:46:38;14.20;60.90
68011;DHT22;54794;48.348;7.878;2023-02-19T01:49:13;14.20;60.80
68011;DHT22;54794;48.348;7.878;2023-02-19T01:51:47;14.20;60.80
68011;DHT22;54794;48.348;7.878;2023-02-19T01:54:27;14.20;60.90
68011;DHT22;54794;48.348;7.878;2023-02-19T01:56:58;14.20;60.90
68011;DHT22;54794;48.348;7.878;2023-02-19T01:59:28;14.10;60.80
68011;DHT22;54794;48.348;7.878;2023-02-19T02:01:57;14.20;60.90
68011;DHT22;54794;48.348;7.878;2023-02-19T02:04:26;14.10;60.80
68011;DHT22;54794;48.348;7.878;2023-02-19T02:06:58;14.10;61.30
68011;DHT22;54794;48.348;7.878;2023-02-19T02:09:29;14.10;60.80
68011;DHT22;54794;48.348;7.878;2023-02-19T02:12:15;14.10;60.80
68011;DHT22;54794;48.348;7.878;2023-02-19T02:14:44;14.10;60.80
68011;DHT22;54794;48.348;7.878;2023-02-19T02:17:29;14.10;60.80
68011;DHT22;54794;48.348;7.878;2023-02-19T02:35:33;14.00;60.70
68011;DHT22;54794;48.348;7.878;2023-02-19T02:38:14;14.10;60.80
68011;DHT22;54794;48.348;7.878;2023-02-19T02:40:44;14.00;60.80
68011;DHT22;54794;48.348;7.878;2023-02-19T02:43:12;14.00;60.80
68011;DHT22;54794;48.348;7.878;2023-02-19T02:45:39;14.00;60.80
68011;DHT22;54794;48.348;7.878;2023-02-19T02:48:28;14.00;60.80
68011;DHT22;54794;48.348;7.878;2023-02-19T02:56:55;14.00;60.90
68011;DHT22;54794;48.348;7.878;2023-02-19T02:59:26;13.90;60.80
68011;DHT22;54794;48.348;7.878;2023-02-19T03:02:17;13.90;60.90
68011;DHT22;54794;48.348;7.878;2023-02-19T03:04:52;13.90;61.00
68011;DHT22;54794;48.348;7.878;2023-02-19T03:08:03;13.90;61.00
68011;DHT22;54794;48.348;7.878;2023-02-19T03:10:42;13.90;61.00
68011;DHT22;54794;48.348;7.878;2023-02-19T03:13:17;13.80;61.00
68011;DHT22;54794;48.348;7.878;2023-02-19T03:16:19;13.80;61.10
68011;DHT22;54794;48.348;7.878;2023-02-19T03:19:09;13.80;61.10
68011;DHT22;54794;48.348;7.878;2023-02-19T03:21:59;13.70;61.10
68011;DHT22;54794;48.348;7.878;2023-02-19T03:24:34;13.70;61.40
68011;DHT22;54794;48.348;7.878;2023-02-19T03:27:27;13.70;61.10
68011;DHT22;54794;48.348;7.878;2023-02-19T03:30:00;13.70;61.10
68011;DHT22;54794;48.348;7.878;2023-02-19T03:32:37;13.60;61.10
68011;DHT22;54794;48.348;7.878;2023-02-19T03:35:13;13.60;61.20
68011;DHT22;54794;48.348;7.878;2023-02-19T03:41:05;13.60;61.30
68011;DHT22;54794;48.348;7.878;2023-02-19T03:43:41;13.70;61.40
68011;DHT22;54794;48.348;7.878;2023-02-19T03:46:40;13.60;61.30
68011;DHT22;54794;48.348;7.878;2023-02-19T03:49:26;13.60;61.40
68011;DHT22;54794;48.348;7.878;2023-02-19T03:56:03;13.60;61.40
68011;DHT22;54794;48.348;7.878;2023-02-19T03:58:40;13.60;61.40
68011;DHT22;54794;48.348;7.878;2023-02-19T04:01:20;13.60;61.30
68011;DHT22;54794;48.348;7.878;2023-02-19T04:03:57;13.60;61.40
68011;DHT22;54794;48.348;7.878;2023-02-19T04:06:32;13.60;61.40
68011;DHT22;54794;48.348;7.878;2023-02-19T04:09:03;13.50;61.30
68011;DHT22;54794;48.348;7.878;2023-02-19T04:11:33;13.50;61.30
68011;DHT22;54794;48.348;7.878;2023-02-19T04:16:40;13.50;61.30
68011;DHT22;54794;48.348;7.878;2023-02-19T04:19:12;13.50;61.40
68011;DHT22;54794;48.348;7.878;2023-02-19T04:21:45;13.50;61.50
68011;DHT22;54794;48.348;7.878;2023-02-19T04:24:26;13.50;61.50
68011;DHT22;54794;48.348;7.878;2023-02-19T04:26:57;13.50;61.50
68011;DHT22;54794;48.348;7.878;2023-02-19T04:29:25;13.40;61.40
68011;DHT22;54794;48.348;7.878;2023-02-19T04:31:52;13.50;61.50
68011;DHT22;54794;48.348;7.878;2023-02-19T04:34:19;13.40;61.50
68011;DHT22;54794;48.348;7.878;2023-02-19T04:36:46;13.40;61.50
68011;DHT22;54794;48.348;7.878;2023-02-19T04:39:12;13.40;61.40
68011;DHT22;54794;48.348;7.878;2023-02-19T04:41:39;13.40;61.40
68011;DHT22;54794;48.348;7.878;2023-02-19T04:44:06;13.40;61.50
68011;DHT22;54794;48.348;7.878;2023-02-19T04:46:33;13.30;61.50
68011;DHT22;54794;48.348;7.878;2023-02-19T04:49:00;13.30;61.50
68011;DHT22;54794;48.348;7.878;2023-02-19T04:51:27;13.30;61.50
68011;DHT22;54794;48.348;7.878;2023-02-19T04:53:54;13.40;61.60
68011;DHT22;54794;48.348;7.878;2023-02-19T04:56:21;13.30;61.60
68011;DHT22;54794;48.348;7.878;2023-02-19T04:58:48;13.30;61.60
68011;DHT22;54794;48.348;7.878;2023-02-19T05:01:16;13.40;61.70
68011;DHT22;54794;48.348;7.878;2023-02-19T05:03:43;13.30;61.70
68011;DHT22;54794;48.348;7.878;2023-02-19T05:06:11;13.50;61.90
68011;DHT22;54794;48.348;7.878;2023-02-19T05:08:39;13.30;61.90
68011;DHT22;54794;48.348;7.878;2023-02-19T05:11:07;13.30;62.00
68011;DHT22;54794;48.348;7.878;2023-02-19T05:13:37;13.30;61.80
68011;DHT22;54794;48.348;7.878;2023-02-19T05:16:13;13.30;61.70
68011;DHT22;54794;48.348;7.878;2023-02-19T05:18:45;13.20;62.10
68011;DHT22;54794;48.348;7.878;2023-02-19T05:21:13;13.20;62.00
68011;DHT22;54794;48.348;7.878;2023-02-19T05:23:41;13.20;62.10
68011;DHT22;54794;48.348;7.878;2023-02-19T05:26:13;13.20;62.30
68011;DHT22;54794;48.348;7.878;2023-02-19T05:28:44;13.20;62.50
68011;DHT22;54794;48.348;7.878;2023-02-19T05:31:12;13.10;62.40
68011;DHT22;54794;48.348;7.878;2023-02-19T05:33:40;13.10;62.50
68011;DHT22;54794;48.348;7.878;2023-02-19T05:36:11;13.10;62.60
68011;DHT22;54794;48.348;7.878;2023-02-19T05:38:40;13.10;62.70
68011;DHT22;54794;48.348;7.878;2023-02-19T05:41:15;13.10;62.70
68011;DHT22;54794;48.348;7.878;2023-02-19T05:43:46;13.10;63.10
68011;DHT22;54794;48.348;7.878;2023-02-19T05:46:17;13.10;62.90
68011;DHT22;54794;48.348;7.878;2023-02-19T05:48:47;13.00;63.00
68011;DHT22;54794;48.348;7.878;2023-02-19T05:51:16;13.00;63.00
68011;DHT22;54794;48.348;7.878;2023-02-19T05:53:45;13.00;63.10
68011;DHT22;54794;48.348;7.878;2023-02-19T05:58:55;13.00;63.70
68011;DHT22;54794;48.348;7.878;2023-02-19T06:01:25;13.00;63.20
68011;DHT22;54794;48.348;7.878;2023-02-19T06:03:54;13.00;63.30
68011;DHT22;54794;48.348;7.878;2023-02-19T06:06:24;13.00;63.30
68011;DHT22;54794;48.348;7.878;2023-02-19T06:08:52;13.00;63.30
68011;DHT22;54794;48.348;7.878;2023-02-19T06:11:20;13.00;63.40
68011;DHT22;54794;48.348;7.878;2023-02-19T06:13:47;12.90;63.30
68011;DHT22;54794;48.348;7.878;2023-02-19T06:16:16;12.90;63.30
68011;DHT22;54794;48.348;7.878;2023-02-19T06:18:44;12.90;63.40
68011;DHT22;54794;48.348;7.878;2023-02-19T06:21:11;12.90;63.50
68011;DHT22;54794;48.348;7.878;2023-02-19T06:23:39;12.90;63.50
68011;DHT22;54794;48.348;7.878;2023-02-19T06:26:12;12.90;63.60
68011;DHT22;54794;48.348;7.878;2023-02-19T06:28:41;12.90;63.70
68011;DHT22;54794;48.348;7.878;2023-02-19T06:31:09;13.00;63.60
68011;DHT22;54794;48.348;7.878;2023-02-19T06:33:39;13.00;63.70
68011;DHT22;54794;48.348;7.878;2023-02-19T06:36:13;12.90;63.30
68011;DHT22;54794;48.348;7.878;2023-02-19T06:38:42;12.90;63.60
68011;DHT22;54794;48.348;7.878;2023-02-19T06:41:10;12.90;63.50
68011;DHT22;54794;48.348;7.878;2023-02-19T06:43:38;12.90;63.60
68011;DHT22;54794;48.348;7.878;2023-02-19T06:46:06;12.90;63.40
68011;DHT22;54794;48.348;7.878;2023-02-19T06:48:34;12.90;63.50
68011;DHT22;54794;48.348;7.878;2023-02-19T06:51:01;12.90;63.60
68011;DHT22;54794;48.348;7.878;2023-02-19T06:53:28;12.90;63.60
68011;DHT22;54794;48.348;7.878;2023-02-19T06:55:57;12.90;63.60
68011;DHT22;54794;48.348;7.878;2023-02-19T06:58:29;12.90;63.70
68011;DHT22;54794;48.348;7.878;2023-02-19T07:00:57;12.90;63.70
68011;DHT22;54794;48.348;7.878;2023-02-19T07:03:24;12.90;63.80
68011;DHT22;54794;48.348;7.878;2023-02-19T07:05:52;12.90;63.80
68011;DHT22;54794;48.348;7.878;2023-02-19T07:08:19;12.90;63.90
68011;DHT22;54794;48.348;7.878;2023-02-19T07:10:54;12.90;63.80
68011;DHT22;54794;48.348;7.878;2023-02-19T07:13:26;12.90;64.20
68011;DHT22;54794;48.348;7.878;2023-02-19T07:16:01;12.90;64.40
68011;DHT22;54794;48.348;7.878;2023-02-19T07:18:33;12.90;64.10
68011;DHT22;54794;48.348;7.878;2023-02-19T07:21:06;12.90;63.80
68011;DHT22;54794;48.348;7.878;2023-02-19T07:23:35;12.90;63.80
68011;DHT22;54794;48.348;7.878;2023-02-19T07:26:02;12.90;63.80
68011;DHT22;54794;48.348;7.878;2023-02-19T07:28:29;12.90;63.80
68011;DHT22;54794;48.348;7.878;2023-02-19T07:31:03;12.80;63.70
68011;DHT22;54794;48.348;7.878;2023-02-19T07:33:30;12.80;63.90
68011;DHT22;54794;48.348;7.878;2023-02-19T07:35:57;12.80;63.80
68011;DHT22;54794;48.348;7.878;2023-02-19T07:38:25;12.80;63.80
68011;DHT22;54794;48.348;7.878;2023-02-19T07:40:56;12.80;63.90
68011;DHT22;54794;48.348;7.878;2023-02-19T07:43:27;12.80;64.10
68011;DHT22;54794;48.348;7.878;2023-02-19T07:45:55;12.80;63.80
68011;DHT22;54794;48.348;7.878;2023-02-19T07:48:22;12.80;63.80
68011;DHT22;54794;48.348;7.878;2023-02-19T07:50:54;12.80;63.90
68011;DHT22;54794;48.348;7.878;2023-02-19T07:53:23;12.80;64.10
68011;DHT22;54794;48.348;7.878;2023-02-19T07:55:51;12.70;64.00
68011;DHT22;54794;48.348;7.878;2023-02-19T07:58:18;12.80;64.00
68011;DHT22;54794;48.348;7.878;2023-02-19T08:00:45;12.80;64.00
68011;DHT22;54794;48.348;7.878;2023-02-19T08:03:12;12.80;64.10
68011;DHT22;54794;48.348;7.878;2023-02-19T08:05:40;12.80;64.10
68011;DHT22;54794;48.348;7.878;2023-02-19T08:08:11;12.80;64.10
68011;DHT22;54794;48.348;7.878;2023-02-19T08:10:39;12.80;64.60
68011;DHT22;54794;48.348;7.878;2023-02-19T08:13:26;12.80;64.10
68011;DHT22;54794;48.348;7.878;2023-02-19T08:16:08;12.80;64.10
68011;DHT22;54794;48.348;7.878;2023-02-19T08:18:49;12.80;64.20
68011;DHT22;54794;48.348;7.878;2023-02-19T08:21:16;12.90;64.10
68011;DHT22;54794;48.348;7.878;2023-02-19T08:23:44;12.90;64.10
68011;DHT22;54794;48.348;7.878;2023-02-19T08:26:12;12.90;64.20
68011;DHT22;54794;48.348;7.878;2023-02-19T08:28:39;12.90;64.10
68011;DHT22;54794;48.348;7.878;2023-02-19T08:31:08;12.90;64.10
68011;DHT22;54794;48.348;7.878;2023-02-19T08:33:37;12.90;64.10
68011;DHT22;54794;48.348;7.878;2023-02-19T08:36:06;12.90;64.20
68011;DHT22;54794;48.348;7.878;2023-02-19T08:38:35;12.90;64.20
68011;DHT22;54794;48.348;7.878;2023-02-19T08:41:08;12.90;64.20
68011;DHT22;54794;48.348;7.878;2023-02-19T08:43:37;12.90;64.30
68011;DHT22;54794;48.348;7.878;2023-02-19T08:46:05;13.00;64.20
68011;DHT22;54794;48.348;7.878;2023-02-19T08:48:36;12.90;64.20
68011;DHT22;54794;48.348;7.878;2023-02-19T08:51:10;13.00;64.30
68011;DHT22;54794;48.348;7.878;2023-02-19T08:53:39;13.00;64.40
68011;DHT22;54794;48.348;7.878;2023-02-19T08:56:16;13.00;64.30
68011;DHT22;54794;48.348;7.878;2023-02-19T08:58:44;13.00;64.50
68011;DHT22;54794;48.348;7.878;2023-02-19T09:01:13;13.00;64.20
68011;DHT22;54794;48.348;7.878;2023-02-19T09:03:44;13.10;64.30
68011;DHT22;54794;48.348;7.878;2023-02-19T09:06:16;13.00;64.10
68011;DHT22;54794;48.348;7.878;2023-02-19T09:08:44;13.10;64.30
68011;DHT22;54794;48.348;7.878;2023-02-19T09:11:11;13.10;64.10
68011;DHT22;54794;48.348;7.878;2023-02-19T09:13:39;13.00;64.10
68011;DHT22;54794;48.348;7.878;2023-02-19T09:16:06;13.10;64.40
68011;DHT22;54794;48.348;7.878;2023-02-19T09:18:33;13.00;64.00
68011;DHT22;54794;48.348;7.878;2023-02-19T09:21:02;13.10;64.10
68011;DHT22;54794;48.348;7.878;2023-02-19T09:23:35;13.10;64.20
68011;DHT22;54794;48.348;7.878;2023-02-19T09:26:04;13.10;64.30
68011;DHT22;54794;48.348;7.878;2023-02-19T09:28:34;13.10;64.20
68011;DHT22;54794;48.348;7.878;2023-02-19T09:31:05;13.10;64.10
68011;DHT22;54794;48.348;7.878;2023-02-19T09:33:33;13.10;64.10
68011;DHT22;54794;48.348;7.878;2023-02-19T09:36:01;13.10;63.90
68011;DHT22;54794;48.348;7.878;2023-02-19T09:38:28;13.20;64.10
68011;DHT22;54794;48.348;7.878;2023-02-19T09:40:56;13.10;64.10
68011;DHT22;54794;48.348;7.878;2023-02-19T09:43:27;13.20;64.20
68011;DHT22;54794;48.348;7.878;2023-02-19T09:48:50;13.30;64.60
68011;DHT22;54794;48.348;7.878;2023-02-19T09:51:18;13.30;64.30
68011;DHT22;54794;48.348;7.878;2023-02-19T09:53:48;13.30;64.80
68011;DHT22;54794;48.348;7.878;2023-02-19T09:56:17;13.40;64.30
68011;DHT22;54794;48.348;7.878;2023-02-19T09:58:56;13.30;64.10
68011;DHT22;54794;48.348;7.878;2023-02-19T10:01:28;13.40;64.10
68011;DHT22;54794;48.348;7.878;2023-02-19T10:04:00;13.50;64.10
68011;DHT22;54794;48.348;7.878;2023-02-19T10:06:27;13.50;64.00
68011;DHT22;54794;48.348;7.878;2023-02-19T10:09:08;13.50;63.90
68011;DHT22;54794;48.348;7.878;2023-02-19T10:11:43;13.50;63.70
68011;DHT22;54794;48.348;7.878;2023-02-19T10:14:21;13.50;63.60
68011;DHT22;54794;48.348;7.878;2023-02-19T10:17:01;13.60;63.80
68011;DHT22;54794;48.348;7.878;2023-02-19T10:19:32;13.60;63.40
68011;DHT22;54794;48.348;7.878;2023-02-19T10:22:01;13.60;63.50
68011;DHT22;54794;48.348;7.878;2023-02-19T10:24:29;13.60;63.40
68011;DHT22;54794;48.348;7.878;2023-02-19T10:26:57;13.60;63.50
68011;DHT22;54794;48.348;7.878;2023-02-19T10:29:24;13.60;63.30
68011;DHT22;54794;48.348;7.878;2023-02-19T10:35:13;13.60;63.10
68011;DHT22;54794;48.348;7.878;2023-02-19T10:37:46;13.70;63.10
68011;DHT22;54794;48.348;7.878;2023-02-19T10:40:18;13.70;63.10
68011;DHT22;54794;48.348;7.878;2023-02-19T10:42:56;13.70;63.10
68011;DHT22;54794;48.348;7.878;2023-02-19T10:45:44;13.70;63.10
68011;DHT22;54794;48.348;7.878;2023-02-19T10:48:23;13.70;62.90
68011;DHT22;54794;48.348;7.878;2023-02-19T10:51:00;13.70;62.90
68011;DHT22;54794;48.348;7.878;2023-02-19T10:53:50;13.70;62.90
68011;DHT22;54794;48.348;7.878;2023-02-19T10:56:30;13.70;62.90
68011;DHT22;54794;48.348;7.878;2023-02-19T11:02:17;13.70;62.70
68011;DHT22;54794;48.348;7.878;2023-02-19T11:07:54;13.80;62.50
68011;DHT22;54794;48.348;7.878;2023-02-19T11:10:24;13.80;62.80
68011;DHT22;54794;48.348;7.878;2023-02-19T11:12:58;13.80;62.60
68011;DHT22;54794;48.348;7.878;2023-02-19T11:15:37;13.80;62.70
68011;DHT22;54794;48.348;7.878;2023-02-19T11:18:30;13.80;62.40
68011;DHT22;54794;48.348;7.878;2023-02-19T11:21:03;13.80;62.60
68011;DHT22;54794;48.348;7.878;2023-02-19T11:23:37;13.80;62.30
68011;DHT22;54794;48.348;7.878;2023-02-19T11:26:18;13.90;62.30
68011;DHT22;54794;48.348;7.878;2023-02-19T11:29:00;13.90;63.10
68011;DHT22;54794;48.348;7.878;2023-02-19T11:31:38;13.90;62.30
68011;DHT22;54794;48.348;7.878;2023-02-19T11:37:12;13.80;62.10
68011;DHT22;54794;48.348;7.878;2023-02-19T11:39:49;13.90;62.20
68011;DHT22;54794;48.348;7.878;2023-02-19T11:42:44;13.80;62.20
68011;DHT22;54794;48.348;7.878;2023-02-19T11:48:31;13.90;62.30
68011;DHT22;54794;48.348;7.878;2023-02-19T11:51:23;13.90;62.50
68011;DHT22;54794;48.348;7.878;2023-02-19T11:56:42;13.90;62.10
68011;DHT22;54794;48.348;7.878;2023-02-19T11:59:30;13.90;62.20
68011;DHT22;54794;48.348;7.878;2023-02-19T12:02:21;13.90;62.10
68011;DHT22;54794;48.348;7.878;2023-02-19T12:07:59;14.00;62.30
68011;DHT22;54794;48.348;7.878;2023-02-19T12:10:50;14.00;62.10
68011;DHT22;54794;48.348;7.878;2023-02-19T12:17:02;14.00;61.80
68011;DHT22;54794;48.348;7.878;2023-02-19T12:43:16;14.30;61.70
68011;DHT22;54794;48.348;7.878;2023-02-19T12:45:55;14.30;61.50
68011;DHT22;54794;48.348;7.878;2023-02-19T12:48:40;14.30;61.60
68011;DHT22;54794;48.348;7.878;2023-02-19T12:53:54;14.30;61.10
68011;DHT22;54794;48.348;7.878;2023-02-19T12:56:33;14.40;61.40
68011;DHT22;54794;48.348;7.878;2023-02-19T12:59:10;14.40;61.20
68011;DHT22;54794;48.348;7.878;2023-02-19T13:05:12;14.50;60.90
68011;DHT22;54794;48.348;7.878;2023-02-19T13:08:01;14.50;60.70
68011;DHT22;54794;48.348;7.878;2023-02-19T13:10:38;14.50;60.60
68011;DHT22;54794;48.348;7.878;2023-02-19T13:13:16;14.50;60.20
68011;DHT22;54794;48.348;7.878;2023-02-19T13:15:52;14.50;60.40
68011;DHT22;54794;48.348;7.878;2023-02-19T13:21:21;14.40;60.40
68011;DHT22;54794;48.348;7.878;2023-02-19T13:24:16;14.40;60.50
68011;DHT22;54794;48.348;7.878;2023-02-19T13:30:07;14.40;60.00
68011;DHT22;54794;48.348;7.878;2023-02-19T13:33:29;14.40;60.50
68011;DHT22;54794;48.348;7.878;2023-02-19T13:38:42;14.30;60.40
68011;DHT22;54794;48.348;7.878;2023-02-19T13:41:27;14.30;60.40
68011;DHT22;54794;48.348;7.878;2023-02-19T13:43:59;14.30;60.30
68011;DHT22;54794;48.348;7.878;2023-02-19T13:46:37;14.30;60.50
68011;DHT22;54794;48.348;7.878;2023-02-19T13:52:04;14.30;60.20
68011;DHT22;54794;48.348;7.878;2023-02-19T14:01:09;14.30;60.40
68011;DHT22;54794;48.348;7.878;2023-02-19T14:03:45;14.30;60.40
68011;DHT22;54794;48.348;7.878;2023-02-19T14:06:22;14.30;60.10
68011;DHT22;54794;48.348;7.878;2023-02-19T14:08:56;14.20;60.20
68011;DHT22;54794;48.348;7.878;2023-02-19T14:14:24;14.20;60.00
68011;DHT22;54794;48.348;7.878;2023-02-19T14:22:57;14.20;60.20
68011;DHT22;54794;48.348;7.878;2023-02-19T14:25:50;14.20;59.90
68011;DHT22;54794;48.348;7.878;2023-02-19T14:28:30;14.20;60.00
68011;DHT22;54794;48.348;7.878;2023-02-19T14:34:21;14.20;60.00
68011;DHT22;54794;48.348;7.878;2023-02-19T14:36:57;14.30;60.00
68011;DHT22;54794;48.348;7.878;2023-02-19T14:39:33;14.20;60.00
68011;DHT22;54794;48.348;7.878;2023-02-19T14:42:20;14.30;60.30
68011;DHT22;54794;48.348;7.878;2023-02-19T14:44:54;14.20;59.90
68011;DHT22;54794;48.348;7.878;2023-02-19T14:47:26;14.20;60.10
68011;DHT22;54794;48.348;7.878;2023-02-19T14:50:12;14.30;60.20
68011;DHT22;54794;48.348;7.878;2023-02-19T14:52:48;14.20;59.90
68011;DHT22;54794;48.348;7.878;2023-02-19T14:55:26;14.20;59.70
68011;DHT22;54794;48.348;7.878;2023-02-19T14:58:09;14.20;59.70
68011;DHT22;54794;48.348;7.878;2023-02-19T15:00:51;14.20;59.70
68011;DHT22;54794;48.348;7.878;2023-02-19T15:06:07;14.10;59.80
68011;DHT22;54794;48.348;7.878;2023-02-19T15:08:51;14.10;59.80
68011;DHT22;54794;48.348;7.878;2023-02-19T15:11:31;14.30;60.20
68011;DHT22;54794;48.348;7.878;2023-02-19T15:14:22;14.10;59.80
68011;DHT22;54794;48.348;7.878;2023-02-19T15:17:02;14.00;59.80
68011;DHT22;54794;48.348;7.878;2023-02-19T15:19:34;14.10;60.00
68011;DHT22;54794;48.348;7.878;2023-02-19T15:22:23;14.10;60.10
68011;DHT22;54794;48.348;7.878;2023-02-19T15:25:22;14.10;59.70
68011;DHT22;54794;48.348;7.878;2023-02-19T15:33:47;14.10;60.00
68011;DHT22;54794;48.348;7.878;2023-02-19T15:36:31;14.10;60.00
68011;DHT22;54794;48.348;7.878;2023-02-19T15:39:03;14.10;60.30
68011;DHT22;54794;48.348;7.878;2023-02-19T15:42:07;14.10;60.00
68011;DHT22;54794;48.348;7.878;2023-02-19T15:44:46;14.10;59.80
68011;DHT22;54794;48.348;7.878;2023-02-19T15:47:39;14.00;59.90
68011;DHT22;54794;48.348;7.878;2023-02-19T15:50:35;14.10;59.80
68011;DHT22;54794;48.348;7.878;2023-02-19T15:54:04;14.10;60.00
68011;DHT22;54794;48.348;7.878;2023-02-19T15:57:23;14.10;60.00
68011;DHT22;54794;48.348;7.878;2023-02-19T16:03:20;14.10;59.70
68011;DHT22;54794;48.348;7.878;2023-02-19T16:06:18;14.10;59.90
68011;DHT22;54794;48.348;7.878;2023-02-19T16:09:38;14.10;59.80
68011;DHT22;54794;48.348;7.878;2023-02-19T16:12:18;14.10;59.70
68011;DHT22;54794;48.348;7.878;2023-02-19T16:14:50;14.10;59.80
68011;DHT22;54794;48.348;7.878;2023-02-19T16:17:19;14.10;59.80
68011;DHT22;54794;48.348;7.878;2023-02-19T16:22:27;14.10;59.70
68011;DHT22;54794;48.348;7.878;2023-02-19T16:24:58;14.10;59.90
68011;DHT22;54794;48.348;7.878;2023-02-19T16:27:42;14.10;59.90
68011;DHT22;54794;48.348;7.878;2023-02-19T16:32:48;14.10;59.90
68011;DHT22;54794;48.348;7.878;2023-02-19T16:36:25;14.10;59.90
68011;DHT22;54794;48.348;7.878;2023-02-19T16:39:15;14.00;59.60
68011;DHT22;54794;48.348;7.878;2023-02-19T16:42:10;14.00;59.80
68011;DHT22;54794;48.348;7.878;2023-02-19T16:44:39;14.00;59.70
68011;DHT22;54794;48.348;7.878;2023-02-19T16:47:13;14.00;59.90
68011;DHT22;54794;48.348;7.878;2023-02-19T16:49:44;14.00;59.80
68011;DHT22;54794;48.348;7.878;2023-02-19T16:52:14;14.00;59.90
68011;DHT22;54794;48.348;7.878;2023-02-19T16:54:42;14.00;59.90
68011;DHT22;54794;48.348;7.878;2023-02-19T16:57:12;14.00;59.90
68011;DHT22;54794;48.348;7.878;2023-02-19T16:59:39;14.00;59.80
68011;DHT22;54794;48.348;7.878;2023-02-19T17:02:13;14.00;59.90
68011;DHT22;54794;48.348;7.878;2023-02-19T17:05:03;13.90;59.70
68011;DHT22;54794;48.348;7.878;2023-02-19T17:07:36;14.00;59.80
68011;DHT22;54794;48.348;7.878;2023-02-19T17:10:28;13.90;59.70
68011;DHT22;54794;48.348;7.878;2023-02-19T17:13:03;13.90;59.80
68011;DHT22;54794;48.348;7.878;2023-02-19T17:15:30;13.90;59.70
68011;DHT22;54794;48.348;7.878;2023-02-19T17:17:57;13.90;59.80
68011;DHT22;54794;48.348;7.878;2023-02-19T17:20:28;13.80;59.70
68011;DHT22;54794;48.348;7.878;2023-02-19T17:22:56;13.80;59.70
68011;DHT22;54794;48.348;7.878;2023-02-19T17:25:24;13.80;59.80
68011;DHT22;54794;48.348;7.878;2023-02-19T17:27:52;13.80;59.80
68011;DHT22;54794;48.348;7.878;2023-02-19T17:30:36;13.80;59.70
68011;DHT22;54794;48.348;7.878;2023-02-19T17:33:41;13.80;59.70
68011;DHT22;54794;48.348;7.878;2023-02-19T17:36:42;13.80;59.70
68011;DHT22;54794;48.348;7.878;2023-02-19T17:51:54;13.80;59.80
68011;DHT22;54794;48.348;7.878;2023-02-19T18:03:25;13.60;59.60
68011;DHT22;54794;48.348;7.878;2023-02-19T18:07:21;13.50;59.70
68011;DHT22;54794;48.348;7.878;2023-02-19T18:31:19;13.50;59.70
68011;DHT22;54794;48.348;7.878;2023-02-19T18:50:33;13.40;59.70
68011;DHT22;54794;48.348;7.878;2023-02-19T18:54:22;13.40;59.70
68011;DHT22;54794;48.348;7.878;2023-02-19T19:01:29;13.50;59.80
68011;DHT22;54794;48.348;7.878;2023-02-19T19:05:36;13.40;59.90
68011;DHT22;54794;48.348;7.878;2023-02-19T19:08:58;13.50;59.90
68011;DHT22;54794;48.348;7.878;2023-02-19T19:12:19;13.30;59.80
68011;DHT22;54794;48.348;7.878;2023-02-19T19:57:27;13.40;60.00
68011;DHT22;54794;48.348;7.878;2023-02-19T20:01:04;13.20;60.00
68011;DHT22;54794;48.348;7.878;2023-02-19T20:17:55;13.10;59.90
68011;DHT22;54794;48.348;7.878;2023-02-19T20:38:44;13.00;60.00
68011;DHT22;54794;48.348;7.878;2023-02-19T20:55:03;12.90;60.20
68011;DHT22;54794;48.348;7.878;2023-02-19T20:58:42;13.00;60.30
68011;DHT22;54794;48.348;7.878;2023-02-19T21:10:28;12.80;60.30
68011;DHT22;54794;48.348;7.878;2023-02-19T21:18:49;12.70;60.40
68011;DHT22;54794;48.348;7.878;2023-02-19T21:30:37;12.70;60.60
68011;DHT22;54794;48.348;7.878;2023-02-19T21:49:38;12.50;60.60
68011;DHT22;54794;48.348;7.878;2023-02-19T21:57:37;12.60;60.70
68011;DHT22;54794;48.348;7.878;2023-02-19T22:01:09;12.30;60.60
68011;DHT22;54794;48.348;7.878;2023-02-19T22:17:23;12.40;60.60